createdAt,value
2023-04-10T00:00:43.266Z,18.90
2023-04-10T00:03:11.829Z,18.80
2023-04-10T00:05:41.525Z,19.10
2023-04-10T00:08:09.461Z,19.57
2023-04-10T00:10:37.403Z,18.40
2023-04-10T00:13:05.537Z,18.83
2023-04-10T00:15:33.506Z,18.90
2023-04-10T00:18:01.576Z,18.43
2023-04-10T00:20:31.720Z,19.00
2023-04-10T00:23:01.133Z,18.43
2023-04-10T00:25:29.114Z,18.60
2023-04-10T00:27:57.055Z,18.80
2023-04-10T00:30:25.513Z,18.53
2023-04-10T00:32:53.505Z,19.47
2023-04-10T00:35:21.626Z,19.53
2023-04-10T00:37:50.311Z,20.30
2023-04-10T00:40:19.643Z,20.00
2023-04-10T00:42:47.814Z,19.23
2023-04-10T00:45:15.779Z,19.40
2023-04-10T00:47:43.791Z,19.70
2023-04-10T00:50:12.359Z,18.87
2023-04-10T00:52:40.506Z,19.17
2023-04-10T00:55:09.852Z,19.13
2023-04-10T00:57:39.292Z,19.20
2023-04-10T01:00:08.594Z,19.47
2023-04-10T01:02:36.776Z,20.10
2023-04-10T01:05:05.250Z,19.80
2023-04-10T01:07:52.946Z,19.60
2023-04-10T01:10:28.717Z,19.60
2023-04-10T01:13:07.779Z,20.40
2023-04-10T01:15:44.173Z,19.50
2023-04-10T01:18:17.276Z,19.53
2023-04-10T01:20:45.518Z,20.00
2023-04-10T01:23:54.367Z,19.40
2023-04-10T01:26:48.549Z,19.33
2023-04-10T01:29:21.184Z,19.70
2023-04-10T01:31:55.423Z,19.57
2023-04-10T01:34:27.108Z,19.40
2023-04-10T01:36:58.319Z,19.43
2023-04-10T01:39:28.647Z,19.63
2023-04-10T01:41:59.574Z,19.50
2023-04-10T01:44:32.134Z,19.40
2023-04-10T01:47:01.485Z,19.30
2023-04-10T01:49:31.375Z,20.40
2023-04-10T01:52:01.258Z,19.40
2023-04-10T01:54:29.841Z,19.20
2023-04-10T01:56:58.823Z,19.60
2023-04-10T01:59:28.463Z,19.80
2023-04-10T02:01:58.317Z,19.30
2023-04-10T02:04:27.830Z,19.37
2023-04-10T02:07:04.595Z,18.77
2023-04-10T02:09:47.041Z,19.20
2023-04-10T02:12:22.921Z,19.50
2023-04-10T02:14:54.083Z,19.80
2023-04-10T02:17:28.759Z,19.70
2023-04-10T02:19:57.479Z,19.20
2023-04-10T02:22:26.674Z,19.23
2023-04-10T02:24:55.377Z,19.50
2023-04-10T02:27:30.508Z,19.10
2023-04-10T02:29:59.811Z,19.43
2023-04-10T02:32:28.269Z,19.20
2023-04-10T02:34:57.147Z,19.27
2023-04-10T02:37:25.701Z,19.60
2023-04-10T02:39:54.732Z,19.40
2023-04-10T02:42:22.858Z,19.30
2023-04-10T02:44:50.829Z,20.13
2023-04-10T02:47:20.187Z,19.23
2023-04-10T02:49:48.359Z,20.03
2023-04-10T02:52:16.617Z,19.20
2023-04-10T02:54:44.746Z,19.33
2023-04-10T02:57:13.119Z,19.70
2023-04-10T02:59:41.214Z,19.60
2023-04-10T03:02:09.741Z,19.40
2023-04-10T03:04:39.158Z,19.27
2023-04-10T03:07:07.311Z,19.07
2023-04-10T03:09:35.341Z,18.97
2023-04-10T03:12:03.336Z,18.47
2023-04-10T03:14:31.572Z,19.20
2023-04-10T03:16:59.534Z,18.90
2023-04-10T03:19:28.159Z,18.47
2023-04-10T03:21:57.453Z,19.10
2023-04-10T03:24:25.832Z,39.07
2023-04-10T03:26:53.854Z,39.23
2023-04-10T03:29:22.673Z,39.70
2023-04-10T03:31:50.983Z,39.33
2023-04-10T03:34:19.094Z,38.87
2023-04-10T03:36:47.214Z,41.40
2023-04-10T03:39:16.503Z,40.83
2023-04-10T03:41:44.434Z,41.30
2023-04-10T03:44:12.437Z,40.90
2023-04-10T03:46:40.496Z,40.20
2023-04-10T03:49:08.522Z,39.43
2023-04-10T03:51:36.497Z,39.80
2023-04-10T03:54:04.865Z,18.77
2023-04-10T03:56:34.189Z,18.90
2023-04-10T03:59:02.237Z,19.13
2023-04-10T04:01:30.873Z,19.10
2023-04-10T04:03:59.336Z,19.23
2023-04-10T04:06:27.839Z,20.07
2023-04-10T04:08:55.837Z,19.13
2023-04-10T04:11:23.863Z,19.17
2023-04-10T04:13:53.629Z,19.07
2023-04-10T04:16:22.281Z,19.20
2023-04-10T04:18:50.246Z,19.40
2023-04-10T04:21:18.363Z,19.60
2023-04-10T04:23:46.302Z,19.43
2023-04-10T04:26:14.257Z,19.20
2023-04-10T04:28:42.244Z,19.00
2023-04-10T04:31:11.544Z,18.87
2023-04-10T04:33:39.474Z,19.37
2023-04-10T04:36:08.211Z,18.73
2023-04-10T04:38:36.220Z,38.17
2023-04-10T04:41:04.264Z,39.60
2023-04-10T04:43:32.269Z,39.20
2023-04-10T04:46:00.543Z,40.17
2023-04-10T04:48:29.869Z,40.13
2023-04-10T04:50:57.831Z,40.07
2023-04-10T04:53:25.912Z,39.63
2023-04-10T04:55:53.902Z,36.57
2023-04-10T04:58:23.711Z,35.67
2023-04-10T05:00:52.945Z,37.87
2023-04-10T05:03:21.226Z,35.23
2023-04-10T05:05:50.743Z,36.83
2023-04-10T05:08:18.708Z,37.23
2023-04-10T05:10:46.779Z,35.40
2023-04-10T05:13:17.474Z,36.80
2023-04-10T05:15:45.684Z,35.80
2023-04-10T05:18:14.326Z,34.97
2023-04-10T05:20:42.391Z,35.03
2023-04-10T05:23:11.753Z,36.57
2023-04-10T05:25:39.753Z,36.80
2023-04-10T05:28:07.723Z,35.50
2023-04-10T05:30:35.759Z,36.43
2023-04-10T05:33:03.785Z,17.97
2023-04-10T05:35:31.885Z,18.23
2023-04-10T05:38:00.714Z,18.20
2023-04-10T05:40:30.291Z,17.30
2023-04-10T05:42:58.681Z,20.13
2023-04-10T05:45:28.656Z,18.13
2023-04-10T05:47:56.730Z,18.87
2023-04-10T05:50:24.828Z,18.17
2023-04-10T05:52:52.836Z,19.73
2023-04-10T05:55:20.844Z,18.90
2023-04-10T05:57:51.419Z,18.47
2023-04-10T06:00:19.889Z,18.00
2023-04-10T06:02:48.035Z,34.77
2023-04-10T06:05:16.078Z,34.63
2023-04-10T06:07:44.041Z,35.20
2023-04-10T06:10:12.265Z,35.57
2023-04-10T06:12:40.518Z,34.67
2023-04-10T06:15:10.783Z,36.10
2023-04-10T06:17:43.602Z,33.00
2023-04-10T06:20:12.334Z,35.20
2023-04-10T06:22:40.716Z,35.63
2023-04-10T06:25:09.413Z,35.37
2023-04-10T06:27:37.586Z,36.20
2023-04-10T06:30:06.729Z,35.70
2023-04-10T06:32:36.216Z,37.27
2023-04-10T06:35:04.416Z,18.93
2023-04-10T06:37:33.017Z,18.20
2023-04-10T06:40:06.554Z,17.90
2023-04-10T06:42:34.550Z,17.47
2023-04-10T06:45:02.709Z,33.90
2023-04-10T06:47:31.029Z,34.83
2023-04-10T06:50:00.488Z,35.00
2023-04-10T06:52:28.626Z,34.60
2023-04-10T06:54:56.539Z,34.30
2023-04-10T06:57:24.508Z,34.80
2023-04-10T06:59:52.565Z,33.30
2023-04-10T07:02:20.646Z,34.57
2023-04-10T07:04:48.760Z,34.63
2023-04-10T07:07:19.348Z,34.67
2023-04-10T07:09:47.379Z,35.83
2023-04-10T07:12:15.460Z,35.33
2023-04-10T07:14:43.648Z,35.10
2023-04-10T07:17:11.607Z,35.40
2023-04-10T07:19:39.599Z,34.53
2023-04-10T07:22:08.124Z,34.90
2023-04-10T07:24:37.458Z,18.13
2023-04-10T07:27:05.521Z,18.80
2023-04-10T07:29:33.497Z,18.20
2023-04-10T07:32:01.820Z,18.30
2023-04-10T07:34:29.981Z,17.83
2023-04-10T07:36:58.120Z,20.23
2023-04-10T07:39:26.142Z,19.93
2023-04-10T07:41:55.957Z,31.37
2023-04-10T07:44:24.194Z,27.40
2023-04-10T07:46:52.324Z,29.23
2023-04-10T07:49:20.272Z,31.30
2023-04-10T07:51:48.211Z,29.90
2023-04-10T07:54:16.337Z,32.97
2023-04-10T07:56:44.300Z,30.27
2023-04-10T07:59:15.912Z,32.50
2023-04-10T08:01:44.081Z,26.80
2023-04-10T08:04:12.410Z,25.67
2023-04-10T08:06:40.441Z,21.80
2023-04-10T08:09:08.570Z,22.23
2023-04-10T08:11:38.588Z,21.90
2023-04-10T08:14:07.255Z,18.33
2023-04-10T08:16:38.586Z,17.83
2023-04-10T08:19:06.745Z,18.00
2023-04-10T08:21:34.716Z,18.27
2023-04-10T08:24:04.265Z,18.23
2023-04-10T08:26:32.290Z,18.13
2023-04-10T08:29:01.425Z,18.70
2023-04-10T08:31:30.434Z,15.43
2023-04-10T08:34:00.301Z,18.10
2023-04-10T08:36:29.305Z,18.00
2023-04-10T08:38:57.250Z,18.57
2023-04-10T08:41:25.265Z,17.70
2023-04-10T08:43:53.762Z,17.90
2023-04-10T08:46:24.756Z,17.70
2023-04-10T08:48:56.216Z,19.73
2023-04-10T08:51:31.469Z,19.07
2023-04-10T08:54:06.604Z,19.00
2023-04-10T08:56:36.032Z,18.80
2023-04-10T08:59:06.044Z,18.73
2023-04-10T09:01:35.064Z,34.90
2023-04-10T09:04:03.495Z,36.23
2023-04-10T09:06:32.883Z,36.50
2023-04-10T09:12:01.445Z,35.20
2023-04-10T09:14:31.892Z,35.77
2023-04-10T09:17:14.980Z,32.67
2023-04-10T09:19:43.984Z,37.10
2023-04-10T09:22:13.902Z,36.60
2023-04-10T09:24:44.110Z,39.90
2023-04-10T09:27:12.713Z,39.73
2023-04-10T09:29:45.705Z,39.30
2023-04-10T09:32:14.107Z,37.57
2023-04-10T09:34:56.862Z,38.43
2023-04-10T09:37:32.826Z,39.57
2023-04-10T09:40:00.941Z,45.40
2023-04-10T09:42:33.713Z,48.53
2023-04-10T09:45:02.482Z,46.57
2023-04-10T09:47:30.974Z,46.20
2023-04-10T09:50:01.421Z,18.80
2023-04-10T09:52:32.390Z,18.87
2023-04-10T09:55:02.502Z,19.10
2023-04-10T09:57:32.142Z,19.33
2023-04-10T10:00:04.252Z,19.17
2023-04-10T10:02:34.984Z,17.33
2023-04-10T10:05:06.412Z,17.80
2023-04-10T10:07:38.409Z,18.90
2023-04-10T10:10:09.012Z,18.30
2023-04-10T10:12:45.491Z,18.43
2023-04-10T10:15:19.299Z,18.33
2023-04-10T10:17:56.049Z,17.40
2023-04-10T10:20:26.179Z,17.67
2023-04-10T10:22:57.586Z,17.80
2023-04-10T10:25:26.489Z,17.70
2023-04-10T10:27:55.467Z,17.70
2023-04-10T10:30:30.214Z,17.90
2023-04-10T10:33:00.302Z,17.50
2023-04-10T10:35:29.933Z,17.87
2023-04-10T10:38:00.205Z,18.40
2023-04-10T10:40:33.083Z,17.97
2023-04-10T10:43:10.095Z,17.77
2023-04-10T10:45:45.397Z,18.07
2023-04-10T10:48:13.421Z,17.90
2023-04-10T10:50:57.961Z,18.43
2023-04-10T10:53:35.663Z,17.90
2023-04-10T10:56:39.862Z,17.70
2023-04-10T10:59:07.830Z,17.93
2023-04-10T11:01:35.973Z,17.33
2023-04-10T11:04:44.654Z,17.73
2023-04-10T11:07:13.220Z,18.05
2023-04-10T11:09:57.370Z,17.38
2023-04-10T11:12:26.208Z,18.50
2023-04-10T11:15:01.764Z,18.90
2023-04-10T11:17:49.746Z,18.70
2023-04-10T11:20:18.280Z,18.90
2023-04-10T11:23:08.347Z,18.60
2023-04-10T11:25:50.380Z,19.23
2023-04-10T11:28:37.470Z,19.75
2023-04-10T11:31:19.772Z,19.17
2023-04-10T11:33:49.525Z,19.80
2023-04-10T11:36:18.595Z,19.85
2023-04-10T11:38:57.537Z,18.63
2023-04-10T11:41:31.323Z,19.00
2023-04-10T11:43:59.803Z,19.67
2023-04-10T11:46:28.113Z,19.45
2023-04-10T11:48:58.276Z,19.13
2023-04-10T11:51:27.428Z,18.88
2023-04-10T11:54:09.743Z,18.45
2023-04-10T11:56:39.982Z,18.38
2023-04-10T11:59:10.709Z,18.25
2023-04-10T12:01:42.778Z,18.92
2023-04-10T12:04:18.879Z,18.70
2023-04-10T12:06:48.407Z,18.25
2023-04-10T12:09:17.493Z,18.60
2023-04-10T12:11:59.533Z,18.70
2023-04-10T12:14:32.042Z,18.70
2023-04-10T12:17:00.973Z,19.40
2023-04-10T12:19:29.502Z,18.13
2023-04-10T12:21:59.559Z,18.50
2023-04-10T12:24:44.348Z,18.60
2023-04-10T12:27:18.900Z,18.95
2023-04-10T12:29:47.563Z,18.70
2023-04-10T12:32:16.376Z,19.08
2023-04-10T12:34:51.219Z,19.77
2023-04-10T12:37:19.261Z,19.80
2023-04-10T12:39:47.377Z,18.63
2023-04-10T12:42:16.584Z,19.05
2023-04-10T12:44:56.770Z,18.95
2023-04-10T12:47:25.425Z,18.95
2023-04-10T12:50:07.728Z,18.45
2023-04-10T12:52:36.461Z,18.75
2023-04-10T12:55:15.634Z,20.00
2023-04-10T12:57:45.109Z,19.13
2023-04-10T13:00:18.496Z,18.92
2023-04-10T13:02:47.667Z,18.75
2023-04-10T13:05:16.548Z,19.83
2023-04-10T13:07:44.619Z,19.38
2023-04-10T13:10:12.820Z,19.08
2023-04-10T13:12:42.075Z,19.48
2023-04-10T13:15:10.825Z,19.17
2023-04-10T13:17:41.834Z,19.55
2023-04-10T13:20:11.323Z,19.65
2023-04-10T13:22:39.276Z,20.10
2023-04-10T13:25:07.839Z,20.90
2023-04-10T13:27:35.842Z,20.98
2023-04-10T13:30:03.895Z,20.55
2023-04-10T13:32:32.226Z,21.35
2023-04-10T13:35:01.560Z,22.15
2023-04-10T13:37:29.501Z,21.30
2023-04-10T13:39:57.429Z,20.98
2023-04-10T13:42:25.379Z,22.45
2023-04-10T13:44:53.333Z,21.77
2023-04-10T13:47:21.291Z,22.40
2023-04-10T13:49:49.238Z,22.65
2023-04-10T13:52:18.661Z,23.08
2023-04-10T13:54:47.605Z,22.77
2023-04-10T13:57:15.599Z,22.60
2023-04-10T13:59:43.655Z,23.27
2023-04-10T14:02:11.878Z,22.38
2023-04-10T14:04:39.876Z,22.65
2023-04-10T14:07:09.692Z,23.00
2023-04-10T14:09:39.190Z,22.05
2023-04-10T14:12:07.168Z,21.95
2023-04-10T14:14:35.219Z,22.40
2023-04-10T14:17:03.269Z,22.00
2023-04-10T14:19:31.373Z,21.85
2023-04-10T14:21:59.319Z,21.55
2023-04-10T14:24:27.267Z,21.90
2023-04-10T14:26:58.484Z,21.55
2023-04-10T14:29:37.286Z,20.52
2023-04-10T14:32:08.696Z,21.33
2023-04-10T14:34:36.709Z,22.10
2023-04-10T14:37:04.705Z,21.13
2023-04-10T14:39:33.893Z,22.20
2023-04-10T14:42:03.335Z,22.45
2023-04-10T14:44:31.518Z,21.10
2023-04-10T14:46:59.707Z,21.20
2023-04-10T14:49:27.671Z,22.42
2023-04-10T14:51:55.637Z,21.50
2023-04-10T14:54:24.211Z,22.15
2023-04-10T14:56:52.319Z,22.10
2023-04-10T14:59:21.608Z,22.05
2023-04-10T15:01:49.640Z,22.00
2023-04-10T15:04:17.756Z,20.92
2023-04-10T15:06:45.768Z,20.52
2023-04-10T15:09:13.704Z,20.52
2023-04-10T15:11:41.662Z,20.20
2023-04-10T15:14:09.640Z,20.20
2023-04-10T15:16:39.025Z,19.48
2023-04-10T15:19:07.035Z,19.65
2023-04-10T15:21:35.176Z,19.20
2023-04-10T15:24:03.148Z,19.88
2023-04-10T15:26:31.231Z,19.10
2023-04-10T15:28:59.159Z,18.80
2023-04-10T15:31:27.435Z,19.33
2023-04-10T15:33:58.832Z,18.58
2023-04-10T15:36:28.055Z,18.80
2023-04-10T15:38:56.017Z,18.80
2023-04-10T15:41:23.980Z,18.75
2023-04-10T15:43:51.980Z,20.73
2023-04-10T15:46:19.999Z,18.80
2023-04-10T15:48:47.961Z,18.55
2023-04-10T15:51:17.271Z,18.50
2023-04-10T15:53:45.205Z,18.88
2023-04-10T15:56:16.006Z,18.88
2023-04-10T15:58:44.536Z,18.40
2023-04-10T16:01:12.544Z,18.40
2023-04-10T16:03:40.817Z,18.65
2023-04-10T16:06:09.668Z,20.48
2023-04-10T16:08:38.963Z,18.75
2023-04-10T16:11:07.583Z,19.17
2023-04-10T16:13:35.585Z,18.42
2023-04-10T16:16:04.608Z,18.50
2023-04-10T16:18:32.624Z,19.02
2023-04-10T16:21:00.566Z,19.27
2023-04-10T16:23:28.515Z,19.00
2023-04-10T16:25:57.954Z,18.90
2023-04-10T16:28:26.053Z,18.33
2023-04-10T16:30:54.123Z,18.02
2023-04-10T16:33:22.075Z,19.17
2023-04-10T16:35:50.056Z,18.95
2023-04-10T16:38:18.029Z,17.90
2023-04-10T16:40:46.067Z,18.30
2023-04-10T16:43:15.374Z,17.38
2023-04-10T16:45:43.491Z,17.80
2023-04-10T16:48:11.535Z,17.80
2023-04-10T16:50:39.569Z,18.52
2023-04-10T16:53:07.495Z,17.80
2023-04-10T16:55:35.523Z,18.27
2023-04-10T16:58:03.513Z,18.25
2023-04-10T17:00:32.954Z,17.63
2023-04-10T17:03:01.062Z,17.95
2023-04-10T17:05:35.405Z,18.40
2023-04-10T17:08:03.946Z,19.17
2023-04-10T17:10:31.914Z,18.42
2023-04-10T17:12:59.933Z,21.73
2023-04-10T17:15:27.885Z,18.17
2023-04-10T17:17:57.220Z,18.50
2023-04-10T17:20:25.248Z,18.42
2023-04-10T17:22:53.214Z,19.40
2023-04-10T17:25:21.191Z,18.27
2023-04-10T17:27:49.157Z,18.47
2023-04-10T17:30:17.218Z,20.90
2023-04-10T17:32:45.258Z,18.73
2023-04-10T17:35:14.633Z,19.00
2023-04-10T17:37:42.606Z,18.38
2023-04-10T17:40:11.732Z,18.50
2023-04-10T17:42:39.668Z,18.40
2023-04-10T17:45:08.667Z,19.10
2023-04-10T17:47:36.790Z,18.90
2023-04-10T17:50:05.140Z,18.85
2023-04-10T17:52:34.556Z,19.17
2023-04-10T17:55:02.574Z,19.20
2023-04-10T17:57:30.556Z,19.30
2023-04-10T17:59:58.624Z,18.80
2023-04-10T18:02:26.680Z,20.20
2023-04-10T18:04:54.710Z,19.65
2023-04-10T18:07:22.676Z,20.03
2023-04-10T18:09:52.090Z,19.73
2023-04-10T18:12:20.071Z,19.20
2023-04-10T18:14:48.542Z,20.27
2023-04-10T18:17:16.500Z,19.10
2023-04-10T18:19:44.467Z,19.25
2023-04-10T18:22:12.537Z,19.92
2023-04-10T18:24:40.552Z,20.15
2023-04-10T18:27:09.860Z,20.80
2023-04-10T18:29:37.884Z,21.10
2023-04-10T18:32:07.613Z,20.80
2023-04-10T18:34:36.011Z,19.92
2023-04-10T18:37:03.983Z,19.67
2023-04-10T18:39:32.831Z,20.25
2023-04-10T18:42:02.797Z,20.85
2023-04-10T18:44:34.570Z,21.15
2023-04-10T18:47:04.615Z,20.70
2023-04-10T18:49:33.207Z,21.23
2023-04-10T18:52:01.890Z,21.42
2023-04-10T18:54:30.767Z,21.65
2023-04-10T18:56:58.916Z,21.15
2023-04-10T18:59:28.452Z,26.35
2023-04-10T19:01:57.856Z,20.48
2023-04-10T19:04:26.095Z,21.33
2023-04-10T19:06:54.078Z,20.92
2023-04-10T19:09:22.074Z,21.15
2023-04-10T19:11:50.150Z,20.65
2023-04-10T19:14:18.080Z,20.90
2023-04-10T19:16:46.091Z,22.27
2023-04-10T19:19:15.814Z,22.27
2023-04-10T19:21:43.768Z,20.25
2023-04-10T19:24:11.835Z,20.17
2023-04-10T19:26:39.865Z,20.30
2023-04-10T19:29:08.911Z,20.55
2023-04-10T19:31:37.043Z,22.30
2023-04-10T19:34:09.172Z,21.67
2023-04-10T19:36:38.905Z,18.98
2023-04-10T19:39:07.074Z,19.10
2023-04-10T19:41:37.138Z,20.55
2023-04-10T19:44:06.152Z,21.10
2023-04-10T19:46:34.159Z,20.52
2023-04-10T19:49:02.111Z,20.02
2023-04-10T19:51:32.225Z,19.83
2023-04-10T19:54:01.589Z,20.60
2023-04-10T19:56:29.591Z,20.35
2023-04-10T19:58:57.960Z,20.65
2023-04-10T20:01:26.230Z,20.55
2023-04-10T20:03:54.397Z,23.13
2023-04-10T20:06:22.831Z,23.20
2023-04-10T20:08:50.940Z,22.65
2023-04-10T20:11:20.272Z,22.42
2023-04-10T20:13:48.270Z,21.65
2023-04-10T20:16:16.356Z,21.60
2023-04-10T20:18:44.420Z,21.50
2023-04-10T20:21:12.365Z,21.52
2023-04-10T20:23:40.334Z,19.40
2023-04-10T20:26:09.262Z,20.65
2023-04-10T20:28:38.600Z,19.67
2023-04-10T20:31:06.734Z,19.77
2023-04-10T20:33:35.067Z,19.75
2023-04-10T20:36:03.214Z,19.88
2023-04-10T20:38:31.265Z,19.35
2023-04-10T20:40:59.321Z,19.58
2023-04-10T20:43:27.363Z,20.40
2023-04-10T20:45:56.694Z,20.15
2023-04-10T20:48:24.640Z,19.70
2023-04-10T20:50:53.029Z,19.65
2023-04-10T20:53:21.338Z,19.88
2023-04-10T20:55:54.043Z,20.13
2023-04-10T20:58:22.368Z,19.95
2023-04-10T21:00:52.541Z,19.63
2023-04-10T21:03:22.341Z,20.08
2023-04-10T21:05:54.897Z,19.58
2023-04-10T21:08:22.920Z,20.60
2023-04-10T21:10:51.388Z,19.67
2023-04-10T21:13:24.274Z,20.63
2023-04-10T21:15:53.113Z,20.75
2023-04-10T21:18:25.349Z,20.40
2023-04-10T21:20:53.381Z,19.63
2023-04-10T21:23:21.433Z,20.13
2023-04-10T21:25:53.603Z,20.42
2023-04-10T21:28:21.678Z,20.13
2023-04-10T21:30:49.644Z,20.23
2023-04-10T21:33:17.588Z,19.77
2023-04-10T21:35:46.985Z,20.10
2023-04-10T21:38:14.985Z,20.30
2023-04-10T21:40:43.161Z,20.55
2023-04-10T21:43:11.428Z,20.77
2023-04-10T21:45:39.867Z,20.67
2023-04-10T21:48:07.924Z,19.90
2023-04-10T21:50:36.127Z,19.73
2023-04-10T21:53:05.448Z,19.65
2023-04-10T21:55:33.367Z,21.08
2023-04-10T21:58:01.290Z,20.23
2023-04-10T22:00:29.357Z,19.60
2023-04-10T22:02:57.664Z,19.55
2023-04-10T22:05:25.924Z,19.63
2023-04-10T22:07:54.017Z,19.73
2023-04-10T22:10:23.357Z,20.27
2023-04-10T22:12:51.289Z,19.67
2023-04-10T22:15:19.370Z,19.97
2023-04-10T22:17:47.406Z,19.70
2023-04-10T22:20:15.490Z,20.13
2023-04-10T22:22:43.666Z,19.33
2023-04-10T22:25:11.673Z,19.77
2023-04-10T22:27:41.006Z,20.17
2023-04-10T22:30:10.081Z,20.47
2023-04-10T22:32:38.333Z,20.50
2023-04-10T22:35:07.489Z,19.67
2023-04-10T22:37:35.556Z,21.93
2023-04-10T22:40:03.613Z,19.67
2023-04-10T22:42:32.067Z,19.90
2023-04-10T22:45:01.459Z,19.60
2023-04-10T22:47:29.786Z,19.90
2023-04-10T22:49:58.389Z,20.07
2023-04-10T22:52:26.320Z,20.00
2023-04-10T22:54:54.369Z,20.33
2023-04-10T22:57:23.173Z,19.57
2023-04-10T22:59:51.268Z,20.03
2023-04-10T23:02:20.616Z,20.80
2023-04-10T23:04:48.673Z,19.40
2023-04-10T23:07:16.678Z,22.23
2023-04-10T23:09:44.779Z,22.10
2023-04-10T23:12:12.762Z,21.27
2023-04-10T23:14:40.699Z,19.47
2023-04-10T23:17:08.793Z,19.10
2023-04-10T23:19:38.076Z,20.00
2023-04-10T23:22:06.109Z,19.93
2023-04-10T23:24:34.080Z,19.90
2023-04-10T23:27:02.030Z,20.10
2023-04-10T23:29:30.033Z,19.40
2023-04-10T23:31:57.969Z,19.60
2023-04-10T23:34:26.654Z,19.27
2023-04-10T23:36:56.926Z,20.10
2023-04-10T23:39:24.964Z,20.13
2023-04-10T23:41:52.956Z,19.93
2023-04-10T23:44:20.962Z,20.37
2023-04-10T23:46:49.455Z,20.50
2023-04-10T23:49:17.883Z,19.70
2023-04-10T23:51:46.648Z,20.50
2023-04-10T23:54:16.714Z,20.30
2023-04-10T23:56:44.665Z,19.87
2023-04-10T23:59:17.073Z,19.83
